Roseau, Dominica
Current Conditions -  °F | °C
As of 10:00 AM on Wednesday 28 Jan 2015 (Local Time) from TDCF Reporting Station
Rain Showers Rain Showers  
Wind Chill: 79°   Ceiling: 1700
Heat Index: 82°   Visibility: 6mi
Dew Point: 72°   Wind: 2mph
Humidity: 78%   Direction: 100°E
Pressure: 30"   Gusts: NA
Location:  15.3°N, 61.39°W
Report Text: TDCF 281400Z 10002KT 9999 -SHRA BKN017 26/22 Q1016
Loading
Personal Weather Stations






























Interactive Weather Map New forecast layout! Learn more

10-Day Weather Forecast

Advertisements
Track Severe Weather on mobile